createdAt,value
2018-05-06T00:00:33.250Z,6.30
2018-05-06T00:01:33.224Z,6.20
2018-05-06T00:02:33.200Z,5.90
2018-05-06T00:03:33.172Z,6.10
2018-05-06T00:04:33.144Z,6.00
2018-05-06T00:05:33.120Z,6.50
2018-05-06T00:06:33.092Z,6.10
2018-05-06T00:07:33.069Z,5.80
2018-05-06T00:08:33.044Z,5.90
2018-05-06T00:09:33.018Z,5.60
2018-05-06T00:10:32.991Z,6.10
2018-05-06T00:11:32.966Z,5.70
2018-05-06T00:12:32.941Z,6.10
2018-05-06T00:13:32.918Z,5.60
2018-05-06T00:14:32.890Z,5.70
2018-05-06T00:15:32.860Z,5.80
2018-05-06T00:16:32.842Z,6.00
2018-05-06T00:17:32.814Z,6.10
2018-05-06T00:18:32.783Z,6.00
2018-05-06T00:19:32.759Z,5.30
2018-05-06T00:20:32.735Z,5.30
2018-05-06T00:21:32.708Z,6.30
2018-05-06T00:22:33.181Z,5.90
2018-05-06T00:23:32.654Z,5.80
2018-05-06T00:24:32.629Z,5.70
2018-05-06T00:25:32.603Z,5.90
2018-05-06T00:26:32.578Z,5.70
2018-05-06T00:27:32.550Z,5.90
2018-05-06T00:28:32.524Z,5.70
2018-05-06T00:29:32.500Z,5.60
2018-05-06T00:30:32.472Z,5.10
2018-05-06T00:31:32.449Z,5.50
2018-05-06T00:32:32.424Z,6.00
2018-05-06T00:33:32.405Z,5.50
2018-05-06T00:34:32.370Z,6.40
2018-05-06T00:35:32.344Z,5.70
2018-05-06T00:36:32.316Z,6.00
2018-05-06T00:37:32.291Z,5.80
2018-05-06T00:38:32.264Z,5.20
2018-05-06T00:39:32.242Z,5.70
2018-05-06T00:40:32.215Z,5.80
2018-05-06T00:41:32.192Z,5.60
2018-05-06T00:42:32.163Z,6.20
2018-05-06T00:43:32.137Z,5.40
2018-05-06T00:44:32.111Z,5.40
2018-05-06T00:45:32.086Z,4.80
2018-05-06T00:46:32.059Z,5.60
2018-05-06T00:47:32.035Z,5.20
2018-05-06T00:48:32.016Z,5.30
2018-05-06T00:49:31.981Z,5.50
2018-05-06T00:50:31.957Z,5.40
2018-05-06T00:51:31.931Z,5.80
2018-05-06T00:52:31.907Z,5.60
2018-05-06T00:53:31.879Z,5.70
2018-05-06T00:54:31.852Z,5.60
2018-05-06T00:55:31.827Z,6.30
2018-05-06T00:56:31.803Z,5.80
2018-05-06T00:57:31.772Z,6.00
2018-05-06T00:58:31.746Z,5.70
2018-05-06T00:59:31.721Z,5.50
2018-05-06T01:00:31.694Z,5.70
2018-05-06T01:01:31.668Z,5.60
2018-05-06T01:02:31.641Z,5.70
2018-05-06T01:03:31.617Z,5.70
2018-05-06T01:04:31.592Z,5.50
2018-05-06T01:05:31.566Z,5.60
2018-05-06T01:06:31.542Z,5.00
2018-05-06T01:07:31.512Z,5.20
2018-05-06T01:08:31.488Z,5.20
2018-05-06T01:09:31.460Z,5.70
2018-05-06T01:10:31.433Z,5.50
2018-05-06T01:11:31.409Z,5.30
2018-05-06T01:12:31.384Z,5.60
2018-05-06T01:13:31.359Z,5.40
2018-05-06T01:14:31.334Z,5.50
2018-05-06T01:15:31.339Z,6.00
2018-05-06T01:16:31.280Z,5.60
2018-05-06T01:17:31.254Z,5.40
2018-05-06T01:18:31.228Z,5.40
2018-05-06T01:19:31.250Z,6.20
2018-05-06T01:20:31.174Z,5.60
2018-05-06T01:21:31.652Z,5.90
2018-05-06T01:22:31.121Z,5.70
2018-05-06T01:23:31.097Z,6.50
2018-05-06T01:24:31.072Z,6.00
2018-05-06T01:25:31.048Z,6.80
2018-05-06T01:26:31.019Z,6.20
2018-05-06T01:27:30.991Z,6.50
2018-05-06T01:28:30.968Z,6.50
2018-05-06T01:29:30.940Z,6.30
2018-05-06T01:30:30.915Z,6.50
2018-05-06T01:31:30.888Z,6.90
2018-05-06T01:32:30.861Z,6.10
2018-05-06T01:33:30.835Z,6.30
2018-05-06T01:34:30.814Z,7.50
2018-05-06T01:35:30.785Z,6.80
2018-05-06T01:36:30.765Z,6.90
2018-05-06T01:37:30.735Z,7.10
2018-05-06T01:38:30.707Z,6.50
2018-05-06T01:39:30.679Z,6.70
2018-05-06T01:40:30.652Z,6.70
2018-05-06T01:41:30.627Z,6.60
2018-05-06T01:42:30.602Z,6.30
2018-05-06T01:43:30.577Z,6.80
2018-05-06T01:44:30.553Z,5.80
2018-05-06T01:45:30.525Z,6.00
2018-05-06T01:46:30.498Z,5.50
2018-05-06T01:47:30.471Z,5.20
2018-05-06T01:48:30.444Z,5.80
2018-05-06T01:49:30.419Z,5.90
2018-05-06T01:50:30.391Z,5.40
2018-05-06T01:51:30.367Z,6.50
2018-05-06T01:52:30.345Z,6.70
2018-05-06T01:53:30.316Z,5.10
2018-05-06T01:54:30.289Z,6.10
2018-05-06T01:55:30.261Z,5.80
2018-05-06T01:56:30.235Z,6.20
2018-05-06T01:57:30.211Z,5.90
2018-05-06T01:58:30.183Z,5.90
2018-05-06T01:59:30.161Z,5.80
2018-05-06T02:00:30.139Z,5.80
2018-05-06T02:01:30.107Z,6.80
2018-05-06T02:02:30.080Z,5.90
2018-05-06T02:03:30.054Z,6.90
2018-05-06T02:04:30.028Z,6.30
2018-05-06T02:05:30.002Z,6.80
2018-05-06T02:06:29.974Z,6.90
2018-05-06T02:07:29.947Z,7.00
2018-05-06T02:08:29.925Z,6.70
2018-05-06T02:09:29.895Z,6.80
2018-05-06T02:10:29.874Z,6.40
2018-05-06T02:11:29.844Z,6.00
2018-05-06T02:12:29.818Z,6.60
2018-05-06T02:13:29.792Z,6.40
2018-05-06T02:14:29.765Z,5.70
2018-05-06T02:15:29.745Z,5.80
2018-05-06T02:16:29.716Z,5.30
2018-05-06T02:17:29.685Z,5.40
2018-05-06T02:18:29.658Z,5.30
2018-05-06T02:19:29.632Z,5.80
2018-05-06T02:20:29.605Z,5.20
2018-05-06T02:21:29.580Z,5.00
2018-05-06T02:22:29.552Z,5.40
2018-05-06T02:23:29.528Z,5.60
2018-05-06T02:24:29.502Z,5.60
2018-05-06T02:25:29.478Z,5.20
2018-05-06T02:26:29.454Z,5.80
2018-05-06T02:27:29.420Z,5.80
2018-05-06T02:28:29.397Z,6.00
2018-05-06T02:29:29.368Z,5.30
2018-05-06T02:30:29.342Z,5.60
2018-05-06T02:31:29.324Z,5.20
2018-05-06T02:32:29.293Z,5.70
2018-05-06T02:33:29.266Z,5.80
2018-05-06T02:34:29.238Z,5.20
2018-05-06T02:35:29.213Z,5.50
2018-05-06T02:36:29.189Z,5.50
2018-05-06T02:37:29.161Z,5.80
2018-05-06T02:38:29.137Z,4.90
2018-05-06T02:39:29.106Z,5.30
2018-05-06T02:40:29.079Z,5.10
2018-05-06T02:41:29.052Z,5.70
2018-05-06T02:42:29.025Z,5.80
2018-05-06T02:43:29.001Z,6.00
2018-05-06T02:44:28.975Z,6.10
2018-05-06T02:45:28.948Z,5.50
2018-05-06T02:46:28.921Z,5.50
2018-05-06T02:47:28.894Z,5.30
2018-05-06T02:48:28.872Z,5.20
2018-05-06T02:49:28.841Z,5.50
2018-05-06T02:50:28.815Z,5.60
2018-05-06T02:51:28.789Z,5.20
2018-05-06T02:52:28.762Z,5.10
2018-05-06T02:53:28.735Z,5.50
2018-05-06T02:54:28.708Z,5.80
2018-05-06T02:55:28.684Z,5.90
2018-05-06T02:56:28.663Z,5.40
2018-05-06T02:57:28.633Z,5.60
2018-05-06T02:58:28.608Z,5.30
2018-05-06T02:59:28.576Z,5.50
2018-05-06T03:00:28.550Z,5.20
2018-05-06T03:01:28.525Z,5.60
2018-05-06T03:02:28.500Z,5.50
2018-05-06T03:03:28.472Z,5.90
2018-05-06T03:04:28.446Z,6.40
2018-05-06T03:05:28.421Z,5.30
2018-05-06T03:06:28.392Z,5.70
2018-05-06T03:07:28.367Z,6.00
2018-05-06T03:08:28.340Z,5.60
2018-05-06T03:09:28.314Z,5.80
2018-05-06T03:10:28.288Z,6.00
2018-05-06T03:11:28.262Z,6.20
2018-05-06T03:12:28.232Z,6.00
2018-05-06T03:13:28.205Z,5.80
2018-05-06T03:14:28.179Z,5.60
2018-05-06T03:15:28.154Z,5.70
2018-05-06T03:16:28.127Z,5.20
2018-05-06T03:17:28.105Z,5.80
2018-05-06T03:18:28.128Z,6.00
2018-05-06T03:19:28.045Z,5.60
2018-05-06T03:20:28.020Z,5.40
2018-05-06T03:21:27.993Z,5.70
2018-05-06T03:22:27.966Z,6.20
2018-05-06T03:23:27.944Z,6.10
2018-05-06T03:24:27.916Z,6.00
2018-05-06T03:25:27.887Z,5.80
2018-05-06T03:26:27.863Z,5.60
2018-05-06T03:27:27.837Z,5.60
2018-05-06T03:28:27.809Z,6.00
2018-05-06T03:29:27.833Z,6.10
2018-05-06T03:30:27.756Z,5.80
2018-05-06T03:31:27.728Z,5.50
2018-05-06T03:32:27.701Z,5.40
2018-05-06T03:33:27.680Z,6.10
2018-05-06T03:34:27.653Z,5.40
2018-05-06T03:35:27.623Z,5.60
2018-05-06T03:36:27.597Z,4.80
2018-05-06T03:37:27.571Z,5.40
2018-05-06T03:38:27.543Z,6.00
2018-05-06T03:39:27.516Z,5.70
2018-05-06T03:40:27.491Z,5.70
2018-05-06T03:41:27.464Z,5.10
2018-05-06T03:42:27.440Z,5.60
2018-05-06T03:43:27.408Z,6.10
2018-05-06T03:44:27.386Z,6.50
2018-05-06T03:45:27.356Z,6.60
2018-05-06T03:46:27.328Z,5.90
2018-05-06T03:47:27.309Z,5.80
2018-05-06T03:48:27.278Z,6.90
2018-05-06T03:49:27.251Z,6.00
2018-05-06T03:50:27.227Z,6.20
2018-05-06T03:51:27.196Z,6.10
2018-05-06T03:52:27.172Z,5.90
2018-05-06T03:53:27.144Z,6.00
2018-05-06T03:54:27.117Z,6.20
2018-05-06T03:55:27.092Z,6.10
2018-05-06T03:56:27.066Z,5.60
2018-05-06T03:57:27.072Z,6.60
2018-05-06T03:58:27.013Z,5.60
2018-05-06T03:59:26.984Z,6.20
2018-05-06T04:00:27.017Z,5.50
2018-05-06T04:01:26.935Z,6.00
2018-05-06T04:02:26.904Z,5.60
2018-05-06T04:03:26.880Z,5.50
2018-05-06T04:04:26.860Z,4.90
2018-05-06T04:05:26.830Z,5.10
2018-05-06T04:06:26.800Z,5.70
2018-05-06T04:07:26.772Z,5.30
2018-05-06T04:08:26.746Z,4.80
2018-05-06T04:09:26.720Z,5.40
2018-05-06T04:10:26.695Z,4.80
2018-05-06T04:11:26.666Z,5.30
2018-05-06T04:12:26.643Z,4.70
2018-05-06T04:13:26.616Z,5.00
2018-05-06T04:14:26.589Z,5.10
2018-05-06T04:15:26.569Z,5.00
2018-05-06T04:16:26.540Z,4.80
2018-05-06T04:17:26.513Z,5.20
2018-05-06T04:18:26.487Z,4.90
2018-05-06T04:19:26.462Z,5.10
2018-05-06T04:20:26.433Z,4.70
2018-05-06T04:21:26.414Z,4.90
2018-05-06T04:22:26.385Z,4.90
2018-05-06T04:23:26.361Z,5.00
2018-05-06T04:24:26.333Z,4.50
2018-05-06T04:25:26.312Z,4.90
2018-05-06T04:26:26.282Z,5.00
2018-05-06T04:27:26.255Z,4.70
2018-05-06T04:28:26.231Z,4.80
2018-05-06T04:29:26.205Z,4.80
2018-05-06T04:30:26.179Z,4.90
2018-05-06T04:31:26.152Z,4.80
2018-05-06T04:32:26.127Z,4.80
2018-05-06T04:33:26.102Z,5.30
2018-05-06T04:34:26.078Z,5.60
2018-05-06T04:35:26.056Z,5.60
2018-05-06T04:36:26.096Z,6.80
2018-05-06T04:37:26.010Z,6.40
2018-05-06T04:38:25.978Z,6.90
2018-05-06T04:39:25.951Z,7.10
2018-05-06T04:40:25.927Z,5.80
2018-05-06T04:41:25.902Z,6.00
2018-05-06T04:42:25.877Z,6.10
2018-05-06T04:43:25.853Z,5.70
2018-05-06T04:44:25.829Z,5.30
2018-05-06T04:45:25.804Z,5.20
2018-05-06T04:46:25.779Z,5.30
2018-05-06T04:47:25.756Z,5.40
2018-05-06T04:48:25.731Z,5.20
2018-05-06T04:49:25.713Z,5.30
2018-05-06T04:50:25.682Z,4.90
2018-05-06T04:51:25.664Z,4.90
2018-05-06T04:52:25.632Z,4.70
2018-05-06T04:53:25.608Z,4.60
2018-05-06T04:54:25.592Z,4.70
2018-05-06T04:55:25.561Z,4.40
2018-05-06T04:56:25.537Z,4.70
2018-05-06T04:57:25.518Z,4.80
2018-05-06T04:58:25.491Z,4.60
2018-05-06T04:59:25.464Z,4.50
2018-05-06T05:00:25.446Z,4.40
2018-05-06T05:01:25.427Z,4.80
2018-05-06T05:02:25.394Z,5.10
2018-05-06T05:03:25.366Z,4.40
2018-05-06T05:04:25.349Z,4.90
2018-05-06T05:05:25.324Z,4.80
2018-05-06T05:06:25.297Z,5.30
2018-05-06T05:07:25.273Z,4.70
2018-05-06T05:08:25.251Z,4.60
2018-05-06T05:09:25.253Z,5.10
2018-05-06T05:10:25.203Z,4.60
2018-05-06T05:11:25.179Z,5.10
2018-05-06T05:12:25.154Z,4.60
2018-05-06T05:13:25.131Z,4.60
2018-05-06T05:14:25.109Z,4.30
2018-05-06T05:15:25.083Z,4.60
2018-05-06T05:16:25.060Z,4.60
2018-05-06T05:17:25.045Z,4.60
2018-05-06T05:18:25.013Z,4.30
2018-05-06T05:19:24.999Z,4.00
2018-05-06T05:20:24.970Z,4.00
2018-05-06T05:21:24.947Z,3.70
2018-05-06T05:22:24.923Z,4.40
2018-05-06T05:23:24.898Z,4.30
2018-05-06T05:24:24.877Z,3.90
2018-05-06T05:25:24.855Z,4.00
2018-05-06T05:26:24.838Z,3.70
2018-05-06T05:27:24.809Z,3.50
2018-05-06T05:28:24.787Z,3.90
2018-05-06T05:29:24.971Z,3.90
2018-05-06T05:30:24.741Z,3.60
2018-05-06T05:31:24.719Z,3.70
2018-05-06T05:32:24.697Z,3.60
2018-05-06T05:33:24.675Z,4.00
2018-05-06T05:34:24.733Z,3.60
2018-05-06T05:35:24.655Z,3.30
2018-05-06T05:36:24.606Z,3.80
2018-05-06T05:37:24.584Z,3.30
2018-05-06T05:38:24.589Z,4.00
2018-05-06T05:39:24.541Z,3.60
2018-05-06T05:40:24.522Z,3.80
2018-05-06T05:41:24.503Z,3.30
2018-05-06T05:42:24.881Z,3.50
2018-05-06T05:43:24.654Z,3.80
2018-05-06T05:44:24.638Z,3.70
2018-05-06T05:45:24.410Z,3.50
2018-05-06T05:46:24.387Z,3.60
2018-05-06T05:47:24.366Z,4.10
2018-05-06T05:48:24.349Z,3.70
2018-05-06T05:49:24.327Z,4.00
2018-05-06T05:50:24.301Z,3.90
2018-05-06T05:51:24.282Z,4.00
2018-05-06T05:52:24.465Z,4.20
2018-05-06T05:53:24.248Z,4.00
2018-05-06T05:54:24.220Z,3.50
2018-05-06T05:55:24.195Z,3.90
2018-05-06T05:56:24.179Z,4.10
2018-05-06T05:57:24.154Z,4.00
2018-05-06T05:58:24.335Z,4.10
2018-05-06T05:59:24.114Z,4.00
2018-05-06T06:00:24.094Z,4.20
2018-05-06T06:01:24.077Z,4.20
2018-05-06T06:02:24.052Z,3.90
2018-05-06T06:03:24.032Z,4.00
2018-05-06T06:04:24.010Z,4.60
2018-05-06T06:05:23.993Z,3.90
2018-05-06T06:06:23.969Z,3.90
2018-05-06T06:07:23.950Z,4.90
2018-05-06T06:08:24.133Z,4.20
2018-05-06T06:09:23.911Z,4.00
2018-05-06T06:10:23.892Z,3.90
2018-05-06T06:11:23.868Z,4.10
2018-05-06T06:12:23.853Z,4.20
2018-05-06T06:13:23.829Z,4.60
2018-05-06T06:14:23.808Z,4.00
2018-05-06T06:15:23.792Z,4.20
2018-05-06T06:16:23.782Z,3.90
2018-05-06T06:17:23.752Z,4.20
2018-05-06T06:18:23.737Z,4.40
2018-05-06T06:19:23.719Z,4.20
2018-05-06T06:20:23.696Z,4.70
2018-05-06T06:21:23.675Z,4.50
2018-05-06T06:22:23.654Z,4.60
2018-05-06T06:23:23.633Z,4.00
2018-05-06T06:24:23.614Z,3.90
2018-05-06T06:25:23.596Z,4.60
2018-05-06T06:26:23.579Z,4.00
2018-05-06T06:27:23.560Z,4.00
2018-05-06T06:28:23.542Z,4.30
2018-05-06T06:29:23.522Z,3.80
2018-05-06T06:30:23.502Z,4.10
2018-05-06T06:31:23.482Z,4.10
2018-05-06T06:32:23.463Z,4.10
2018-05-06T06:33:23.648Z,4.40
2018-05-06T06:34:23.426Z,3.60
2018-05-06T06:35:23.409Z,4.50
2018-05-06T06:36:23.599Z,4.00
2018-05-06T06:37:23.372Z,4.40
2018-05-06T06:38:23.401Z,3.70
2018-05-06T06:39:23.337Z,4.00
2018-05-06T06:40:23.318Z,3.90
2018-05-06T06:41:23.308Z,3.70
2018-05-06T06:42:23.290Z,3.60
2018-05-06T06:43:23.262Z,4.10
2018-05-06T06:44:23.244Z,3.90
2018-05-06T06:45:23.227Z,3.70
2018-05-06T06:46:23.211Z,4.10
2018-05-06T06:47:23.192Z,3.80
2018-05-06T06:48:23.175Z,3.50
2018-05-06T06:49:23.158Z,3.50
2018-05-06T06:50:23.139Z,4.00
2018-05-06T06:51:23.122Z,4.00
2018-05-06T06:52:23.105Z,4.00
2018-05-06T06:53:23.087Z,4.10
2018-05-06T06:54:23.072Z,3.50
2018-05-06T06:55:23.050Z,3.60
2018-05-06T06:56:23.034Z,4.10
2018-05-06T06:57:23.019Z,3.50
2018-05-06T06:58:22.998Z,3.60
2018-05-06T06:59:22.983Z,3.80
2018-05-06T07:00:23.168Z,3.40
2018-05-06T07:01:22.950Z,3.50
2018-05-06T07:02:24.352Z,3.70
2018-05-06T07:03:23.114Z,3.60
2018-05-06T07:04:23.099Z,3.60
2018-05-06T07:05:24.093Z,3.80
2018-05-06T07:06:23.069Z,3.50
2018-05-06T07:07:23.056Z,3.60
2018-05-06T07:08:23.035Z,3.50
2018-05-06T07:09:23.026Z,4.30
2018-05-06T07:10:23.011Z,4.00
2018-05-06T07:11:22.855Z,4.10
2018-05-06T07:12:22.967Z,3.60
2018-05-06T07:13:22.753Z,3.90
2018-05-06T07:14:22.933Z,3.80
2018-05-06T07:15:22.717Z,3.40
2018-05-06T07:16:22.696Z,3.40
2018-05-06T07:17:22.682Z,3.50
2018-05-06T07:18:22.662Z,3.70
2018-05-06T07:19:22.676Z,3.20
2018-05-06T07:20:22.632Z,3.40
2018-05-06T07:21:22.616Z,3.50
2018-05-06T07:22:22.604Z,3.40
2018-05-06T07:23:22.589Z,3.80
2018-05-06T07:24:22.568Z,3.60
2018-05-06T07:25:22.552Z,3.60
2018-05-06T07:26:22.536Z,3.90
2018-05-06T07:27:22.518Z,4.00
2018-05-06T07:28:22.584Z,4.10
2018-05-06T07:29:22.487Z,3.90
2018-05-06T07:30:22.470Z,3.60
2018-05-06T07:31:22.456Z,4.00
2018-05-06T07:32:22.441Z,4.10
2018-05-06T07:33:22.425Z,3.70
2018-05-06T07:34:22.410Z,3.80
2018-05-06T07:35:22.392Z,3.90
2018-05-06T07:36:22.376Z,4.00
2018-05-06T07:37:22.361Z,4.10
2018-05-06T07:38:22.345Z,4.10
2018-05-06T07:39:22.330Z,3.80
2018-05-06T07:40:22.319Z,3.70
2018-05-06T07:41:22.339Z,4.40
2018-05-06T07:42:22.284Z,4.20
2018-05-06T07:43:22.271Z,4.20
2018-05-06T07:44:22.257Z,3.80
2018-05-06T07:45:22.244Z,4.10
2018-05-06T07:46:22.226Z,4.00
2018-05-06T07:47:22.209Z,4.30
2018-05-06T07:48:22.194Z,4.30
2018-05-06T07:49:22.179Z,4.10
2018-05-06T07:50:22.165Z,4.10
2018-05-06T07:51:22.151Z,4.10
2018-05-06T07:52:22.138Z,4.30
2018-05-06T07:53:22.122Z,4.00
2018-05-06T07:54:22.107Z,3.90
2018-05-06T07:55:22.098Z,3.90
2018-05-06T07:56:22.079Z,4.10
2018-05-06T07:57:22.064Z,4.00
2018-05-06T07:58:22.049Z,4.50
2018-05-06T07:59:22.034Z,4.20
2018-05-06T08:00:22.019Z,4.10
2018-05-06T08:01:22.005Z,4.30
2018-05-06T08:02:21.999Z,4.80
2018-05-06T08:03:21.983Z,4.30
2018-05-06T08:04:21.964Z,4.50
2018-05-06T08:05:21.950Z,3.90
2018-05-06T08:06:21.938Z,4.60
2018-05-06T08:07:22.121Z,4.20
2018-05-06T08:08:21.908Z,4.00
2018-05-06T08:09:21.892Z,4.20
2018-05-06T08:10:21.877Z,4.30
2018-05-06T08:11:21.866Z,4.40
2018-05-06T08:12:21.852Z,4.40
2018-05-06T08:13:21.839Z,3.60
2018-05-06T08:14:21.827Z,3.70
2018-05-06T08:15:21.811Z,4.40
2018-05-06T08:16:21.886Z,3.90
2018-05-06T08:17:21.784Z,4.20
2018-05-06T08:18:21.769Z,3.70
2018-05-06T08:19:21.758Z,4.00
2018-05-06T08:20:21.751Z,4.00
2018-05-06T08:21:21.730Z,4.10
2018-05-06T08:22:21.718Z,3.90
2018-05-06T08:23:21.702Z,3.80
2018-05-06T08:24:21.696Z,3.80
2018-05-06T08:25:21.675Z,3.60
2018-05-06T08:26:21.663Z,3.50
2018-05-06T08:27:21.652Z,3.40
2018-05-06T08:28:21.636Z,3.30
2018-05-06T08:29:21.623Z,3.30
2018-05-06T08:30:21.612Z,3.30
2018-05-06T08:31:21.600Z,3.20
2018-05-06T08:32:21.588Z,3.10
2018-05-06T08:33:21.575Z,3.20
2018-05-06T08:34:21.564Z,3.90
2018-05-06T08:35:21.546Z,3.30
2018-05-06T08:36:21.537Z,3.30
2018-05-06T08:37:21.522Z,3.80
2018-05-06T08:38:21.509Z,3.60
2018-05-06T08:39:21.501Z,3.00
2018-05-06T08:40:21.487Z,3.10
2018-05-06T08:41:21.475Z,3.00
2018-05-06T08:42:21.462Z,3.10
2018-05-06T08:43:21.449Z,3.00
2018-05-06T08:44:21.437Z,3.20
2018-05-06T08:45:21.425Z,2.80
2018-05-06T08:46:21.412Z,3.20
2018-05-06T08:47:21.398Z,2.90
2018-05-06T08:48:21.387Z,2.80
2018-05-06T08:49:21.374Z,3.00
2018-05-06T08:50:21.365Z,3.00
2018-05-06T08:51:21.361Z,2.60
2018-05-06T08:52:21.340Z,3.10
2018-05-06T08:53:21.328Z,3.40
2018-05-06T08:54:21.315Z,2.90
2018-05-06T08:55:21.301Z,3.00
2018-05-06T08:56:21.289Z,3.20
2018-05-06T08:57:21.329Z,2.90
2018-05-06T08:58:21.265Z,2.70
2018-05-06T08:59:21.254Z,3.10
2018-05-06T09:00:21.244Z,2.90
2018-05-06T09:01:21.230Z,2.90
2018-05-06T09:02:21.218Z,2.80
2018-05-06T09:03:21.208Z,3.20
2018-05-06T09:04:21.196Z,3.10
2018-05-06T09:05:21.191Z,3.20
2018-05-06T09:06:21.173Z,3.20
2018-05-06T09:07:21.159Z,3.20
2018-05-06T09:08:21.148Z,2.60
2018-05-06T09:09:21.139Z,3.10
2018-05-06T09:10:21.124Z,2.60
2018-05-06T09:11:21.118Z,3.20
2018-05-06T09:12:21.109Z,3.20
2018-05-06T09:13:21.094Z,2.70
2018-05-06T09:14:21.082Z,3.10
2018-05-06T09:15:21.071Z,2.80
2018-05-06T09:16:21.060Z,2.90
2018-05-06T09:17:21.056Z,2.60
2018-05-06T09:18:21.037Z,3.10
2018-05-06T09:19:21.025Z,2.80
2018-05-06T09:20:21.013Z,2.90
2018-05-06T09:21:21.003Z,2.50
2018-05-06T09:22:21.000Z,2.40
2018-05-06T09:23:20.983Z,2.70
2018-05-06T09:24:20.972Z,2.90
2018-05-06T09:25:20.983Z,3.10
2018-05-06T09:26:20.950Z,2.80
2018-05-06T09:27:20.941Z,3.00
2018-05-06T09:28:20.926Z,2.90
2018-05-06T09:29:20.916Z,2.90
2018-05-06T09:30:20.905Z,2.70
2018-05-06T09:31:20.893Z,2.50
2018-05-06T09:32:20.911Z,2.40
2018-05-06T09:33:20.872Z,2.40
2018-05-06T09:34:20.861Z,2.80
2018-05-06T09:35:20.853Z,2.60
2018-05-06T09:36:20.847Z,2.50
2018-05-06T09:37:20.832Z,2.30
2018-05-06T09:38:20.820Z,2.40
2018-05-06T09:39:20.809Z,2.40
2018-05-06T09:40:20.797Z,2.60
2018-05-06T09:41:20.788Z,2.80
2018-05-06T09:42:20.775Z,2.40
2018-05-06T09:43:20.768Z,2.50
2018-05-06T09:44:20.795Z,2.70
2018-05-06T09:45:20.748Z,2.40
2018-05-06T09:46:20.736Z,2.40
2018-05-06T09:47:20.727Z,2.40
2018-05-06T09:48:20.715Z,2.60
2018-05-06T09:49:20.706Z,2.20
2018-05-06T09:50:20.695Z,2.40
2018-05-06T09:51:20.688Z,2.70
2018-05-06T09:52:20.672Z,2.50
2018-05-06T09:53:20.662Z,2.90
2018-05-06T09:54:20.652Z,2.60
2018-05-06T09:55:20.651Z,2.40
2018-05-06T09:56:20.634Z,2.50
2018-05-06T09:57:20.629Z,2.30
2018-05-06T09:58:20.614Z,2.40
2018-05-06T09:59:20.602Z,2.40
2018-05-06T10:00:20.592Z,2.30
2018-05-06T10:01:20.584Z,2.20
2018-05-06T10:02:20.572Z,2.80
2018-05-06T10:03:20.565Z,2.20
2018-05-06T10:04:20.563Z,2.60
2018-05-06T10:05:20.544Z,2.30
2018-05-06T10:06:20.537Z,2.30
2018-05-06T10:07:20.525Z,2.50
2018-05-06T10:08:20.612Z,2.70
2018-05-06T10:09:20.513Z,2.10
2018-05-06T10:10:20.500Z,2.40
2018-05-06T10:11:20.485Z,2.40
2018-05-06T10:12:20.477Z,2.00
2018-05-06T10:13:20.466Z,2.00
2018-05-06T10:14:20.455Z,2.30
2018-05-06T10:15:20.448Z,2.10
2018-05-06T10:16:20.438Z,2.20
2018-05-06T10:17:20.429Z,2.40
2018-05-06T10:18:20.424Z,2.60
2018-05-06T10:19:20.408Z,2.60
2018-05-06T10:20:20.399Z,2.90
2018-05-06T10:21:20.389Z,2.80
2018-05-06T10:22:20.408Z,2.80
2018-05-06T10:23:20.376Z,2.90
2018-05-06T10:24:20.362Z,2.20
2018-05-06T10:25:20.367Z,2.20
2018-05-06T10:26:20.354Z,2.10
2018-05-06T10:27:20.342Z,2.30
2018-05-06T10:28:20.322Z,2.20
2018-05-06T10:29:20.315Z,2.00
2018-05-06T10:30:20.305Z,2.00
2018-05-06T10:31:20.296Z,1.90
2018-05-06T10:32:20.289Z,2.10
2018-05-06T10:33:20.281Z,3.30
2018-05-06T10:34:20.267Z,2.20
2018-05-06T10:35:20.268Z,1.90
2018-05-06T10:36:20.250Z,2.10
2018-05-06T10:37:20.242Z,2.00
2018-05-06T10:38:20.234Z,2.00
2018-05-06T10:39:20.221Z,2.40
2018-05-06T10:40:20.210Z,2.00
2018-05-06T10:41:20.202Z,2.10
2018-05-06T10:42:20.284Z,1.80
2018-05-06T10:43:20.190Z,2.10
2018-05-06T10:44:20.283Z,1.90
2018-05-06T10:45:20.168Z,1.90
2018-05-06T10:46:20.166Z,1.90
2018-05-06T10:47:20.146Z,1.80
2018-05-06T10:48:20.143Z,2.00
2018-05-06T10:49:20.335Z,1.90
2018-05-06T10:50:20.180Z,2.10
2018-05-06T10:51:20.110Z,1.90
2018-05-06T10:52:20.103Z,1.80
2018-05-06T10:53:20.102Z,1.60
2018-05-06T10:54:20.083Z,1.80
2018-05-06T10:55:20.076Z,1.70
2018-05-06T10:56:20.073Z,1.90
2018-05-06T10:57:20.058Z,1.60
2018-05-06T10:58:20.054Z,1.40
2018-05-06T10:59:20.040Z,1.40
2018-05-06T11:00:20.030Z,1.40
2018-05-06T11:01:20.021Z,1.40
2018-05-06T11:02:20.012Z,1.40
2018-05-06T11:03:20.005Z,1.60
2018-05-06T11:04:20.002Z,1.30
2018-05-06T11:05:20.074Z,1.30
2018-05-06T11:06:19.978Z,1.70
2018-05-06T11:07:19.969Z,1.40
2018-05-06T11:08:19.963Z,1.30
2018-05-06T11:09:19.953Z,1.50
2018-05-06T11:10:19.992Z,1.60
2018-05-06T11:11:19.936Z,1.40
2018-05-06T11:12:19.924Z,1.40
2018-05-06T11:13:19.916Z,1.30
2018-05-06T11:14:19.906Z,1.30
2018-05-06T11:15:19.899Z,1.50
2018-05-06T11:16:19.891Z,1.50
2018-05-06T11:17:19.883Z,1.70
2018-05-06T11:18:19.874Z,1.90
2018-05-06T11:19:19.864Z,1.60
2018-05-06T11:20:19.857Z,1.50
2018-05-06T11:21:19.847Z,1.80
2018-05-06T11:22:19.838Z,1.70
2018-05-06T11:23:19.836Z,1.70
2018-05-06T11:24:19.822Z,1.50
2018-05-06T11:25:19.813Z,1.60
2018-05-06T11:26:19.848Z,1.40
2018-05-06T11:27:19.798Z,1.60
2018-05-06T11:28:19.790Z,1.50
2018-05-06T11:29:19.783Z,1.40
2018-05-06T11:30:19.772Z,1.60
2018-05-06T11:31:19.762Z,1.50
2018-05-06T11:32:19.758Z,1.50
2018-05-06T11:33:19.751Z,1.50
2018-05-06T11:34:19.738Z,1.50
2018-05-06T11:35:19.732Z,1.50
2018-05-06T11:36:19.724Z,1.30
2018-05-06T11:37:19.716Z,1.40
2018-05-06T11:38:19.708Z,1.50
2018-05-06T11:39:19.701Z,1.40
2018-05-06T11:40:19.692Z,1.60
2018-05-06T11:41:19.685Z,1.80
2018-05-06T11:42:19.677Z,1.40
2018-05-06T11:43:19.665Z,1.50
2018-05-06T11:44:19.657Z,1.50
2018-05-06T11:45:19.650Z,1.60
2018-05-06T11:46:19.641Z,1.50
2018-05-06T11:47:19.637Z,1.90
2018-05-06T11:48:19.628Z,1.80
2018-05-06T11:49:19.623Z,1.80
2018-05-06T11:50:19.616Z,1.60
2018-05-06T11:51:19.605Z,1.60
2018-05-06T11:52:19.595Z,1.30
2018-05-06T11:53:19.585Z,1.60
2018-05-06T11:54:19.577Z,1.50
2018-05-06T11:55:19.569Z,1.70
2018-05-06T11:56:19.605Z,1.80
2018-05-06T11:57:19.555Z,2.20
2018-05-06T11:58:19.544Z,2.30
2018-05-06T11:59:19.538Z,2.30
2018-05-06T12:00:19.530Z,1.80
2018-05-06T12:01:19.527Z,1.60
2018-05-06T12:02:19.565Z,1.80
2018-05-06T12:03:19.509Z,1.70
2018-05-06T12:04:19.495Z,1.80
2018-05-06T12:05:19.487Z,1.70
2018-05-06T12:06:19.478Z,1.70
2018-05-06T12:07:19.472Z,1.60
2018-05-06T12:08:19.464Z,1.90
2018-05-06T12:09:19.468Z,1.80
2018-05-06T12:10:19.447Z,1.80
2018-05-06T12:11:19.444Z,1.60
2018-05-06T12:12:19.481Z,1.60
2018-05-06T12:13:19.424Z,1.90
2018-05-06T12:14:19.415Z,1.80
2018-05-06T12:15:19.404Z,2.30
2018-05-06T12:16:19.396Z,1.70
2018-05-06T12:17:19.393Z,1.80
2018-05-06T12:18:19.379Z,1.50
2018-05-06T12:19:19.373Z,1.90
2018-05-06T12:20:19.375Z,1.70
2018-05-06T12:21:19.358Z,1.70
2018-05-06T12:22:19.349Z,1.90
2018-05-06T12:23:19.341Z,1.70
2018-05-06T12:24:19.334Z,1.60
2018-05-06T12:25:19.323Z,2.00
2018-05-06T12:26:19.316Z,1.80
2018-05-06T12:27:19.311Z,1.50
2018-05-06T12:28:19.301Z,1.80
2018-05-06T12:29:19.294Z,2.30
2018-05-06T12:30:19.285Z,1.60
2018-05-06T12:31:19.280Z,1.80
2018-05-06T12:32:19.269Z,1.90
2018-05-06T12:33:19.260Z,1.70
2018-05-06T12:34:19.251Z,1.60
2018-05-06T12:35:19.247Z,2.10
2018-05-06T12:36:19.238Z,1.70
2018-05-06T12:37:19.230Z,1.60
2018-05-06T12:38:19.221Z,1.90
2018-05-06T12:39:19.211Z,1.80
2018-05-06T12:40:19.203Z,1.90
2018-05-06T12:41:19.195Z,1.80
2018-05-06T12:42:19.187Z,2.00
2018-05-06T12:43:19.297Z,1.90
2018-05-06T12:44:19.174Z,1.80
2018-05-06T12:45:19.162Z,1.70
2018-05-06T12:46:19.158Z,1.70
2018-05-06T12:47:19.147Z,1.80
2018-05-06T12:48:19.140Z,1.80
2018-05-06T12:49:19.132Z,1.80
2018-05-06T12:50:19.122Z,2.00
2018-05-06T12:51:19.114Z,1.90
2018-05-06T12:52:19.104Z,1.60
2018-05-06T12:53:19.096Z,1.60
2018-05-06T12:54:19.087Z,1.70
2018-05-06T12:55:19.152Z,18.10
2018-05-06T12:56:19.073Z,2.00
2018-05-06T12:57:19.068Z,2.10
2018-05-06T12:58:19.055Z,1.80
2018-05-06T12:59:19.050Z,1.80
2018-05-06T13:00:19.038Z,1.60
2018-05-06T13:01:19.031Z,1.70
2018-05-06T13:02:19.053Z,1.80
2018-05-06T13:03:19.011Z,1.70
2018-05-06T13:04:19.003Z,1.60
2018-05-06T13:05:18.995Z,1.60
2018-05-06T13:06:18.981Z,1.40
2018-05-06T13:07:18.975Z,1.60
2018-05-06T13:08:18.966Z,1.70
2018-05-06T13:09:18.955Z,1.60
2018-05-06T13:10:18.944Z,1.90
2018-05-06T13:11:19.007Z,1.70
2018-05-06T13:12:18.927Z,2.10
2018-05-06T13:13:18.914Z,1.80
2018-05-06T13:14:18.908Z,1.80
2018-05-06T13:15:18.896Z,1.90
2018-05-06T13:16:18.886Z,2.10
2018-05-06T13:17:18.877Z,1.80
2018-05-06T13:18:18.867Z,1.90